createdAt,value
2018-04-11T00:02:05.274Z,100060.87
2018-04-11T00:04:33.626Z,100058.23
2018-04-11T00:07:01.951Z,100064.00
2018-04-11T00:09:30.327Z,100060.25
2018-04-11T00:11:58.653Z,100064.00
2018-04-11T00:14:27.027Z,100065.95
2018-04-11T00:16:56.125Z,100064.48
2018-04-11T00:19:25.240Z,100059.36
2018-04-11T00:21:53.962Z,100067.98
2018-04-11T00:24:22.317Z,100062.89
2018-04-11T00:26:51.076Z,100057.75
2018-04-11T00:29:19.432Z,100052.72
2018-04-11T00:31:48.544Z,100053.45
2018-04-11T00:34:18.438Z,100052.78
2018-04-11T00:36:46.782Z,100053.89
2018-04-11T00:39:15.100Z,100050.77
2018-04-11T00:41:43.487Z,100049.42
2018-04-11T00:44:12.617Z,100046.42
2018-04-11T00:46:40.969Z,100044.23
2018-04-11T00:49:09.341Z,100045.96
2018-04-11T00:51:38.098Z,100037.67
2018-04-11T00:54:06.437Z,100038.58
2018-04-11T00:56:34.811Z,100032.70
2018-04-11T00:59:03.536Z,100038.02
2018-04-11T01:01:32.282Z,100040.47
2018-04-11T01:04:00.607Z,100034.56
2018-04-11T01:06:28.978Z,100041.67
2018-04-11T01:08:57.321Z,100042.41
2018-04-11T01:11:26.053Z,100048.11
2018-04-11T01:13:55.174Z,100043.24
2018-04-11T01:16:24.260Z,100048.96
2018-04-11T01:18:53.389Z,100041.10
2018-04-11T01:21:22.161Z,100048.39
2018-04-11T01:23:50.494Z,100048.53
2018-04-11T01:26:19.249Z,100036.35
2018-04-11T01:28:47.612Z,100040.53
2018-04-11T01:31:15.929Z,100045.57
2018-04-11T01:33:44.258Z,100040.16
2018-04-11T01:36:12.627Z,100044.34
2018-04-11T01:38:40.941Z,100049.18
2018-04-11T01:41:09.301Z,100052.98
2018-04-11T01:43:37.684Z,100049.02
2018-04-11T01:46:06.045Z,100039.92
2018-04-11T01:48:34.382Z,100042.39
2018-04-11T01:51:02.751Z,100042.03
2018-04-11T01:53:31.099Z,100041.83
2018-04-11T01:55:59.422Z,100048.66
2018-04-11T01:58:28.170Z,100049.43
2018-04-11T02:00:56.534Z,100052.00
2018-04-11T02:03:24.902Z,100046.03
2018-04-11T02:05:53.286Z,100044.61
2018-04-11T02:08:21.611Z,100047.20
2018-04-11T02:10:49.978Z,100052.16
2018-04-11T02:13:18.310Z,100054.66
2018-04-11T02:15:46.686Z,100049.59
2018-04-11T02:18:15.065Z,100053.72
2018-04-11T02:20:44.166Z,100052.55
2018-04-11T02:23:12.529Z,100053.11
2018-04-11T02:25:40.860Z,100059.46
2018-04-11T02:28:09.201Z,100065.81
2018-04-11T02:30:37.507Z,100069.07
2018-04-11T02:33:05.897Z,100066.20
2018-04-11T02:35:34.213Z,100071.09
2018-04-11T02:38:02.562Z,100072.91
2018-04-11T02:40:30.938Z,100077.06
2018-04-11T02:42:59.614Z,100078.55
2018-04-11T02:45:28.027Z,100086.05
2018-04-11T02:47:57.902Z,100085.98
2018-04-11T02:50:26.222Z,100087.50
2018-04-11T02:52:54.541Z,100087.75
2018-04-11T02:55:22.908Z,100095.55
2018-04-11T02:57:51.217Z,100103.16
2018-04-11T03:00:19.557Z,100105.63
2018-04-11T03:02:47.912Z,100098.69
2018-04-11T03:05:16.233Z,100112.23
2018-04-11T03:07:44.599Z,100103.91
2018-04-11T03:10:12.933Z,100104.89
2018-04-11T03:12:42.048Z,100102.91
2018-04-11T03:15:10.399Z,100101.69
2018-04-11T03:17:38.732Z,100093.83
2018-04-11T03:20:07.517Z,100090.91
2018-04-11T03:22:35.938Z,100091.55
2018-04-11T03:25:05.200Z,100088.66
2018-04-11T03:27:33.554Z,100080.58
2018-04-11T03:30:01.926Z,100091.84
2018-04-11T03:32:30.252Z,100086.55
2018-04-11T03:34:58.555Z,100081.05
2018-04-11T03:37:27.667Z,100081.34
2018-04-11T03:39:56.005Z,100088.67
2018-04-11T03:42:24.344Z,100085.63
2018-04-11T03:44:52.675Z,100083.33
2018-04-11T03:47:21.784Z,100093.54
2018-04-11T03:49:50.154Z,100084.48
2018-04-11T03:52:19.253Z,100098.91
2018-04-11T03:54:47.611Z,100103.91
2018-04-11T03:57:15.936Z,100099.61
2018-04-11T03:59:44.327Z,100108.25
2018-04-11T04:02:12.660Z,100107.80
2018-04-11T04:04:41.791Z,100109.63
2018-04-11T04:07:10.153Z,100114.80
2018-04-11T04:09:38.487Z,100116.86
2018-04-11T04:12:06.844Z,100114.38
2018-04-11T04:14:52.751Z,100120.17
2018-04-11T04:17:38.770Z,100126.16
2018-04-11T04:20:40.183Z,100132.64
2018-04-11T04:23:08.666Z,100139.09
2018-04-11T04:25:37.897Z,100140.88
2018-04-11T04:28:07.025Z,100145.59
2018-04-11T04:30:35.782Z,100140.69
2018-04-11T04:33:04.894Z,100144.12
2018-04-11T04:35:34.034Z,100138.02
2018-04-11T04:38:02.381Z,100139.77
2018-04-11T04:40:31.539Z,100137.19
2018-04-11T04:43:00.679Z,100146.34
2018-04-11T04:45:29.058Z,100143.51
2018-04-11T04:47:57.436Z,100143.76
2018-04-11T04:50:25.847Z,100150.58
2018-04-11T04:52:54.212Z,100146.34
2018-04-11T04:55:22.554Z,100148.43
2018-04-11T04:57:50.917Z,100147.80
2018-04-11T05:00:20.039Z,100154.44
2018-04-11T05:02:48.463Z,100157.53
2018-04-11T05:05:16.801Z,100154.92
2018-04-11T05:07:45.169Z,100152.84
2018-04-11T05:10:13.531Z,100153.38
2018-04-11T05:12:47.299Z,100153.89
2018-04-11T05:15:15.691Z,100153.14
2018-04-11T05:17:44.821Z,100149.41
2018-04-11T05:20:13.194Z,100147.45
2018-04-11T05:22:42.409Z,100150.89
2018-04-11T05:25:10.784Z,100146.73
2018-04-11T05:27:39.119Z,100150.83
2018-04-11T05:30:08.209Z,100149.14
2018-04-11T05:32:36.578Z,100153.59
2018-04-11T05:35:05.875Z,100150.59
2018-04-11T05:37:34.261Z,100159.09
2018-04-11T05:40:03.037Z,100160.45
2018-04-11T05:42:31.412Z,100157.03
2018-04-11T05:45:00.180Z,100159.17
2018-04-11T05:47:29.308Z,100153.36
2018-04-11T05:49:57.696Z,100161.08
2018-04-11T05:52:26.036Z,100158.87
2018-04-11T05:54:54.394Z,100161.33
2018-04-11T05:57:22.762Z,100158.38
2018-04-11T05:59:51.118Z,100158.59
2018-04-11T06:02:20.256Z,100155.43
2018-04-11T06:04:49.854Z,100157.25
2018-04-11T06:07:18.245Z,100157.25
2018-04-11T06:09:46.632Z,100155.56
2018-04-11T06:12:15.010Z,100156.75
2018-04-11T06:14:43.355Z,100164.34
2018-04-11T06:17:12.095Z,100160.09
2018-04-11T06:19:40.455Z,100175.87
2018-04-11T06:22:09.572Z,100172.72
2018-04-11T06:24:37.959Z,100177.17
2018-04-11T06:27:07.673Z,100177.34
2018-04-11T06:29:36.842Z,100176.19
2018-04-11T06:32:05.610Z,100179.31
2018-04-11T06:34:33.963Z,100184.83
2018-04-11T06:37:02.303Z,100184.91
2018-04-11T06:39:31.088Z,100188.52
2018-04-11T06:41:59.477Z,100184.76
2018-04-11T06:44:28.599Z,100178.20
2018-04-11T06:46:57.010Z,100179.13
2018-04-11T06:49:25.338Z,100175.63
2018-04-11T06:51:54.491Z,100178.42
2018-04-11T06:54:22.890Z,100173.47
2018-04-11T06:56:51.326Z,100162.63
2018-04-11T06:59:19.729Z,100161.15
2018-04-11T07:01:48.131Z,100163.41
2018-04-11T07:04:16.503Z,100163.09
2018-04-11T07:06:44.850Z,100159.09
2018-04-11T07:09:13.250Z,100164.88
2018-04-11T07:11:41.598Z,100171.10
2018-04-11T07:14:09.994Z,100173.72
2018-04-11T07:16:38.327Z,100172.56
2018-04-11T07:19:07.450Z,100185.39
2018-04-11T07:21:35.818Z,100186.96
2018-04-11T07:24:04.203Z,100188.70
2018-04-11T07:26:32.520Z,100192.12
2018-04-11T07:29:00.854Z,100190.35
2018-04-11T07:31:29.266Z,100179.25
2018-04-11T07:33:57.646Z,100184.84
2018-04-11T07:36:25.980Z,100189.16
2018-04-11T07:38:54.361Z,100180.28
2018-04-11T07:41:22.721Z,100178.22
2018-04-11T07:43:51.057Z,100178.58
2018-04-11T07:46:19.405Z,100180.06
2018-04-11T07:48:47.740Z,100175.91
2018-04-11T07:51:16.119Z,100176.86
2018-04-11T07:53:45.216Z,100185.44
2018-04-11T07:56:13.588Z,100188.63
2018-04-11T07:58:42.670Z,100195.38
2018-04-11T08:01:11.048Z,100205.33
2018-04-11T08:03:39.401Z,100192.08
2018-04-11T08:06:07.780Z,100197.25
2018-04-11T08:08:36.907Z,100192.78
2018-04-11T08:11:05.238Z,100195.55
2018-04-11T08:13:33.608Z,100193.31
2018-04-11T08:16:01.961Z,100211.19
2018-04-11T08:18:30.337Z,100203.11
2018-04-11T08:20:58.712Z,100198.34
2018-04-11T08:23:30.445Z,100197.28
2018-04-11T08:25:58.809Z,100191.95
2018-04-11T08:28:27.128Z,100192.75
2018-04-11T08:30:55.513Z,100193.50
2018-04-11T08:33:23.895Z,100204.27
2018-04-11T08:35:52.226Z,100202.66
2018-04-11T08:38:20.596Z,100201.56
2018-04-11T08:40:48.993Z,100201.17
2018-04-11T08:43:17.340Z,100200.63
2018-04-11T08:45:45.668Z,100205.30
2018-04-11T08:48:14.821Z,100195.46
2018-04-11T08:50:43.191Z,100197.72
2018-04-11T08:53:11.534Z,100193.89
2018-04-11T08:55:39.904Z,100201.02
2018-04-11T08:58:08.233Z,100201.62
2018-04-11T09:00:36.608Z,100188.51
2018-04-11T09:03:04.977Z,100193.70
2018-04-11T09:05:33.383Z,100192.13
2018-04-11T09:08:01.758Z,100199.29
2018-04-11T09:10:30.132Z,100198.55
2018-04-11T09:12:58.453Z,100192.55
2018-04-11T09:15:26.958Z,100193.36
2018-04-11T09:17:55.284Z,100188.42
2018-04-11T09:20:24.381Z,100191.33
2018-04-11T09:22:52.753Z,100193.92
2018-04-11T09:25:21.075Z,100195.29
2018-04-11T09:27:49.413Z,100201.41
2018-04-11T09:30:18.888Z,100200.64
2018-04-11T09:32:48.038Z,100197.41
2018-04-11T09:35:16.523Z,100192.00
2018-04-11T09:37:45.948Z,100196.90
2018-04-11T09:40:14.793Z,100183.92
2018-04-11T09:42:43.977Z,100182.45
2018-04-11T09:45:12.588Z,100184.41
2018-04-11T09:47:41.335Z,100176.66
2018-04-11T09:50:10.300Z,100187.84
2018-04-11T09:52:38.685Z,100189.34
2018-04-11T09:55:07.421Z,100179.33
2018-04-11T09:57:35.884Z,100187.70
2018-04-11T10:00:04.217Z,100187.52
2018-04-11T10:02:37.321Z,100188.50
2018-04-11T10:05:06.118Z,100179.53
2018-04-11T10:07:35.272Z,100177.30
2018-04-11T10:10:04.649Z,100183.17
2018-04-11T10:12:33.098Z,100173.48
2018-04-11T10:15:01.593Z,100178.84
2018-04-11T10:17:30.747Z,100169.85
2018-04-11T10:19:59.529Z,100169.49
2018-04-11T10:22:27.875Z,100159.03
2018-04-11T10:24:57.016Z,100169.23
2018-04-11T10:27:25.355Z,100155.44
2018-04-11T10:29:53.737Z,100171.13
2018-04-11T10:32:22.061Z,100164.91
2018-04-11T10:34:50.422Z,100163.86
2018-04-11T10:37:18.765Z,100159.08
2018-04-11T10:39:47.159Z,100149.39
2018-04-11T10:42:16.242Z,100149.25
2018-04-11T10:44:45.369Z,100150.30
2018-04-11T10:47:13.741Z,100151.98
2018-04-11T10:49:42.111Z,100150.59
2018-04-11T10:52:10.501Z,100147.09
2018-04-11T10:54:38.829Z,100146.95
2018-04-11T10:57:07.972Z,100146.17
2018-04-11T10:59:36.344Z,100141.31
2018-04-11T11:02:04.685Z,100149.20
2018-04-11T11:04:33.064Z,100142.95
2018-04-11T11:07:02.168Z,100156.34
2018-04-11T11:09:31.287Z,100138.20
2018-04-11T11:11:59.664Z,100140.92
2018-04-11T11:14:28.025Z,100135.70
2018-04-11T11:16:56.398Z,100136.00
2018-04-11T11:19:25.525Z,100141.66
2018-04-11T11:21:53.899Z,100138.50
2018-04-11T11:24:22.231Z,100139.55
2018-04-11T11:26:51.381Z,100141.91
2018-04-11T11:29:19.721Z,100133.91
2018-04-11T11:31:48.823Z,100125.64
2018-04-11T11:34:17.216Z,100130.47
2018-04-11T11:36:46.373Z,100134.03
2018-04-11T11:39:14.762Z,100131.30
2018-04-11T11:41:43.896Z,100133.38
2018-04-11T11:44:12.270Z,100132.12
2018-04-11T11:46:42.397Z,100133.67
2018-04-11T11:49:10.800Z,100130.15
2018-04-11T11:51:39.156Z,100129.59
2018-04-11T11:54:08.267Z,100131.99
2018-04-11T11:56:36.667Z,100131.20
2018-04-11T11:59:05.067Z,100130.27
2018-04-11T12:01:34.192Z,100124.02
2018-04-11T12:04:02.545Z,100127.15
2018-04-11T12:06:30.947Z,100118.42
2018-04-11T12:08:59.281Z,100126.62
2018-04-11T12:11:27.677Z,100123.23
2018-04-11T12:13:56.829Z,100115.84
2018-04-11T12:16:25.221Z,100116.09
2018-04-11T12:18:53.612Z,100111.31
2018-04-11T12:21:21.971Z,100109.40
2018-04-11T12:23:50.303Z,100111.77
2018-04-11T12:26:18.686Z,100105.23
2018-04-11T12:28:47.012Z,100113.89
2018-04-11T12:31:15.356Z,100114.19
2018-04-11T12:33:43.740Z,100099.20
2018-04-11T12:36:12.079Z,100095.73
2018-04-11T12:38:41.225Z,100108.55
2018-04-11T12:41:09.578Z,100100.12
2018-04-11T12:43:37.966Z,100096.36
2018-04-11T12:46:06.356Z,100093.80
2018-04-11T12:48:34.745Z,100083.03
2018-04-11T12:51:03.204Z,100087.53
2018-04-11T12:53:31.576Z,100081.88
2018-04-11T12:55:59.980Z,100080.25
2018-04-11T12:58:28.371Z,100075.91
2018-04-11T13:00:56.764Z,100085.77
2018-04-11T13:03:25.120Z,100075.56
2018-04-11T13:05:53.523Z,100074.39
2018-04-11T13:08:22.683Z,100076.64
2018-04-11T13:10:51.038Z,100086.05
2018-04-11T13:13:19.362Z,100077.56
2018-04-11T13:15:47.780Z,100074.64
2018-04-11T13:18:16.177Z,100074.22
2018-04-11T13:20:44.556Z,100072.75
2018-04-11T13:23:12.932Z,100079.44
2018-04-11T13:25:41.322Z,100069.05
2018-04-11T13:28:09.655Z,100073.78
2018-04-11T13:30:38.787Z,100079.66
2018-04-11T13:33:07.143Z,100072.00
2018-04-11T13:35:35.525Z,100073.09
2018-04-11T13:38:03.876Z,100056.99
2018-04-11T13:40:33.634Z,100058.88
2018-04-11T13:43:02.425Z,100057.37
2018-04-11T13:45:30.783Z,100055.06
2018-04-11T13:47:59.238Z,100051.73
2018-04-11T13:50:28.352Z,100042.03
2018-04-11T13:52:56.760Z,100046.05
2018-04-11T13:55:25.114Z,100047.68
2018-04-11T13:57:53.521Z,100040.19
2018-04-11T14:00:21.916Z,100046.41
2018-04-11T14:02:50.295Z,100039.19
2018-04-11T14:05:18.666Z,100037.98
2018-04-11T14:07:47.064Z,100043.23
2018-04-11T14:10:15.431Z,100044.16
2018-04-11T14:12:43.813Z,100045.62
2018-04-11T14:15:12.177Z,100053.28
2018-04-11T14:17:40.551Z,100052.96
2018-04-11T14:20:08.894Z,100052.93
2018-04-11T14:22:37.293Z,100049.62
2018-04-11T14:25:05.633Z,100042.73
2018-04-11T14:27:34.049Z,100046.98
2018-04-11T14:30:02.439Z,100053.48
2018-04-11T14:32:30.817Z,100043.97
2018-04-11T14:34:59.167Z,100063.21
2018-04-11T14:37:27.541Z,100059.92
2018-04-11T14:39:55.900Z,100063.91
2018-04-11T14:42:25.060Z,100061.13
2018-04-11T14:44:53.468Z,100058.58
2018-04-11T14:47:22.700Z,100058.22
2018-04-11T14:49:51.085Z,100064.02
2018-04-11T14:52:19.429Z,100054.76
2018-04-11T14:54:47.919Z,100052.59
2018-04-11T14:57:16.651Z,100050.69
2018-04-11T14:59:45.009Z,100065.22
2018-04-11T15:02:13.382Z,100058.58
2018-04-11T15:04:44.622Z,100060.25
2018-04-11T15:07:13.333Z,100060.25
2018-04-11T15:09:41.796Z,100070.42
2018-04-11T15:12:10.170Z,100057.50
2018-04-11T15:14:38.663Z,100073.69
2018-04-11T15:17:07.319Z,100065.12
2018-04-11T15:19:35.748Z,100071.22
2018-04-11T15:22:04.607Z,100064.19
2018-04-11T15:24:34.172Z,100064.34
2018-04-11T15:27:04.332Z,100070.59
2018-04-11T15:29:32.683Z,100076.20
2018-04-11T15:32:01.918Z,100063.73
2018-04-11T15:34:30.285Z,100066.28
2018-04-11T15:36:58.653Z,100067.11
2018-04-11T15:39:27.127Z,100071.09
2018-04-11T15:41:55.555Z,100068.41
2018-04-11T15:44:25.390Z,100079.00
2018-04-11T15:46:53.796Z,100078.59
2018-04-11T15:49:22.239Z,100075.80
2018-04-11T15:51:50.748Z,100066.25
2018-04-11T15:54:20.649Z,100070.55
2018-04-11T15:56:50.923Z,100075.91
2018-04-11T15:59:19.498Z,100072.52
2018-04-11T16:01:47.921Z,100074.33
2018-04-11T16:04:16.611Z,100076.06
2018-04-11T16:06:45.055Z,100072.44
2018-04-11T16:09:13.833Z,100085.23
2018-04-11T16:11:42.296Z,100091.34
2018-04-11T16:14:10.791Z,100092.67
2018-04-11T16:16:40.674Z,100090.21
2018-04-11T16:19:09.141Z,100089.13
2018-04-11T16:21:38.308Z,100088.31
2018-04-11T16:24:06.695Z,100089.31
2018-04-11T16:26:35.135Z,100089.80
2018-04-11T16:29:03.608Z,100084.04
2018-04-11T16:31:33.525Z,100086.83
2018-04-11T16:34:02.030Z,100090.73
2018-04-11T16:36:30.469Z,100084.73
2018-04-11T16:38:59.736Z,100087.89
2018-04-11T16:41:30.542Z,100089.80
2018-04-11T16:44:00.139Z,100088.03
2018-04-11T16:46:29.343Z,100088.13
2018-04-11T16:48:57.776Z,100092.88
2018-04-11T16:51:28.770Z,100095.69
2018-04-11T16:53:57.137Z,100089.69
2018-04-11T16:56:30.580Z,100095.00
2018-04-11T16:59:00.349Z,100093.82
2018-04-11T17:01:28.986Z,100091.62
2018-04-11T17:04:05.322Z,100092.94
2018-04-11T17:09:09.156Z,100100.38
2018-04-11T17:11:37.973Z,100101.20
2018-04-11T17:14:07.207Z,100097.03
2018-04-11T17:16:35.629Z,100096.97
2018-04-11T17:19:04.128Z,100095.30
2018-04-11T17:21:50.502Z,100111.89
2018-04-11T17:24:36.548Z,100113.44
2018-04-11T17:27:22.933Z,100112.00
2018-04-11T17:30:09.026Z,100119.20
2018-04-11T17:32:38.572Z,100120.22
2018-04-11T17:35:07.262Z,100123.48
2018-04-11T17:37:36.861Z,100122.97
2018-04-11T17:40:10.211Z,100121.30
2018-04-11T17:42:38.793Z,100130.16
2018-04-11T17:45:08.428Z,100127.86
2018-04-11T17:47:39.982Z,100125.73
2018-04-11T17:50:09.408Z,100131.86
2018-04-11T17:52:37.761Z,100127.39
2018-04-11T17:55:06.380Z,100131.13
2018-04-11T17:57:34.725Z,100136.26
2018-04-11T18:00:03.124Z,100138.86
2018-04-11T18:02:31.497Z,100144.92
2018-04-11T18:04:59.895Z,100144.06
2018-04-11T18:07:28.258Z,100143.65
2018-04-11T18:09:56.623Z,100143.44
2018-04-11T18:12:25.000Z,100154.28
2018-04-11T18:14:53.393Z,100144.98
2018-04-11T18:17:21.745Z,100153.88
2018-04-11T18:19:50.119Z,100154.59
2018-04-11T18:22:18.783Z,100146.13
2018-04-11T18:24:47.932Z,100149.39
2018-04-11T18:27:16.653Z,100151.32
2018-04-11T18:29:45.749Z,100155.58
2018-04-11T18:32:14.201Z,100154.05
2018-04-11T18:34:44.062Z,100154.55
2018-04-11T18:37:12.458Z,100161.57
2018-04-11T18:39:41.694Z,100161.55
2018-04-11T18:42:10.045Z,100170.31
2018-04-11T18:44:39.112Z,100170.05
2018-04-11T18:47:07.444Z,100167.08
2018-04-11T18:49:35.932Z,100173.88
2018-04-11T18:52:04.313Z,100176.34
2018-04-11T18:54:32.676Z,100168.98
2018-04-11T18:57:01.041Z,100174.38
2018-04-11T18:59:29.403Z,100175.25
2018-04-11T19:01:57.757Z,100177.45
2018-04-11T19:04:26.117Z,100182.38
2018-04-11T19:06:55.325Z,100181.37
2018-04-11T19:09:24.446Z,100179.33
2018-04-11T19:11:52.840Z,100185.06
2018-04-11T19:14:22.118Z,100182.53
2018-04-11T19:16:50.463Z,100182.70
2018-04-11T19:19:20.871Z,100183.13
2018-04-11T19:21:49.217Z,100183.81
2018-04-11T19:24:17.589Z,100184.16
2018-04-11T19:26:46.734Z,100182.95
2018-04-11T19:29:16.231Z,100175.84
2018-04-11T19:31:44.660Z,100170.05
2018-04-11T19:34:12.989Z,100176.88
2018-04-11T19:36:41.353Z,100169.13
2018-04-11T19:39:09.707Z,100171.70
2018-04-11T19:41:38.113Z,100170.19
2018-04-11T19:44:06.465Z,100179.76
2018-04-11T19:46:35.590Z,100177.06
2018-04-11T19:49:03.949Z,100174.41
2018-04-11T19:51:32.729Z,100172.14
2018-04-11T19:54:01.455Z,100173.81
2018-04-11T19:56:31.449Z,100179.75
2018-04-11T19:58:59.813Z,100183.82
2018-04-11T20:01:28.196Z,100180.77
2018-04-11T20:03:56.616Z,100182.78
2018-04-11T20:06:24.879Z,100179.55
2018-04-11T20:08:53.249Z,100183.46
2018-04-11T20:11:21.593Z,100183.55
2018-04-11T20:13:49.972Z,100180.88
2018-04-11T20:16:18.821Z,100182.92
2018-04-11T20:18:47.957Z,100173.34
2018-04-11T20:21:16.294Z,100177.14
2018-04-11T20:23:45.433Z,100177.88
2018-04-11T20:26:13.796Z,100170.92
2018-04-11T20:28:42.134Z,100166.53
2018-04-11T20:31:11.259Z,100167.80
2018-04-11T20:33:39.684Z,100163.98
2018-04-11T20:36:08.019Z,100168.22
2018-04-11T20:38:36.383Z,100168.94
2018-04-11T20:41:05.470Z,100159.30
2018-04-11T20:43:34.608Z,100153.99
2018-04-11T20:46:02.949Z,100155.95
2018-04-11T20:48:32.074Z,100156.86
2018-04-11T20:51:00.460Z,100151.30
2018-04-11T20:53:28.812Z,100148.53
2018-04-11T20:55:57.174Z,100146.47
2018-04-11T20:58:26.317Z,100146.84
2018-04-11T21:00:54.686Z,100146.53
2018-04-11T21:03:23.064Z,100146.94
2018-04-11T21:05:51.479Z,100149.11
2018-04-11T21:08:19.811Z,100144.53
2018-04-11T21:10:48.924Z,100147.92
2018-04-11T21:13:17.304Z,100142.34
2018-04-11T21:15:45.634Z,100144.88
2018-04-11T21:18:14.780Z,100143.83
2018-04-11T21:20:43.161Z,100139.81
2018-04-11T21:23:11.526Z,100146.28
2018-04-11T21:25:39.877Z,100148.06
2018-04-11T21:28:08.219Z,100142.08
2018-04-11T21:30:36.594Z,100139.56
2018-04-11T21:33:04.971Z,100140.27
2018-04-11T21:35:33.292Z,100144.63
2018-04-11T21:38:01.658Z,100143.24
2018-04-11T21:40:30.044Z,100145.88
2018-04-11T21:42:58.422Z,100139.27
2018-04-11T21:45:26.762Z,100141.25
2018-04-11T21:47:55.144Z,100134.50
2018-04-11T21:50:23.474Z,100138.08
2018-04-11T21:52:51.787Z,100133.58
2018-04-11T21:55:20.145Z,100138.63
2018-04-11T21:57:48.492Z,100129.98
2018-04-11T22:00:16.854Z,100122.70
2018-04-11T22:02:45.947Z,100122.68
2018-04-11T22:05:15.185Z,100119.95
2018-04-11T22:07:43.498Z,100124.72
2018-04-11T22:10:11.832Z,100121.73
2018-04-11T22:12:40.196Z,100124.39
2018-04-11T22:15:08.542Z,100125.86
2018-04-11T22:17:36.909Z,100122.21
2018-04-11T22:20:05.232Z,100126.58
2018-04-11T22:22:33.574Z,100125.09
2018-04-11T22:25:01.904Z,100123.41
2018-04-11T22:27:30.277Z,100124.30
2018-04-11T22:29:58.624Z,100122.70
2018-04-11T22:32:27.756Z,100123.48
2018-04-11T22:34:56.084Z,100124.89
2018-04-11T22:37:25.240Z,100124.34
2018-04-11T22:39:53.574Z,100121.28
2018-04-11T22:42:22.717Z,100121.61
2018-04-11T22:44:51.063Z,100118.79
2018-04-11T22:47:19.426Z,100115.78
2018-04-11T22:49:48.524Z,100114.42
2018-04-11T22:52:16.912Z,100121.28
2018-04-11T22:54:45.240Z,100120.55
2018-04-11T22:57:13.604Z,100110.13
2018-04-11T22:59:41.974Z,100112.19
2018-04-11T23:02:10.335Z,100110.28
2018-04-11T23:04:38.712Z,100110.63
2018-04-11T23:07:07.819Z,100102.47
2018-04-11T23:09:36.191Z,100112.47
2018-04-11T23:12:04.519Z,100108.97
2018-04-11T23:14:32.867Z,100107.52
2018-04-11T23:17:01.195Z,100110.32
2018-04-11T23:19:29.919Z,100108.46
2018-04-11T23:21:59.055Z,100098.59
2018-04-11T23:24:27.402Z,100098.28
2018-04-11T23:26:55.726Z,100102.59
2018-04-11T23:29:24.831Z,100102.39
2018-04-11T23:31:53.203Z,100107.44
2018-04-11T23:34:23.027Z,100106.33
2018-04-11T23:36:51.407Z,100103.12
2018-04-11T23:39:19.721Z,100097.39
2018-04-11T23:41:48.099Z,100097.44
2018-04-11T23:44:16.441Z,100094.83
2018-04-11T23:46:44.798Z,100095.50
2018-04-11T23:49:13.935Z,100095.09
2018-04-11T23:51:42.311Z,100090.86
2018-04-11T23:54:10.698Z,100093.09
2018-04-11T23:56:39.022Z,100090.75
2018-04-11T23:59:08.145Z,100084.09
